sensor_id;sensor_type;location;lat;lon;timestamp;pressure;altitude;pressure_sealevel;temperature;humidity
19797;BME280;10058;57.654;12.044;2024-03-02T00:02:07;100347.84;;;8.95;100.00
19797;BME280;10058;57.654;12.044;2024-03-02T00:04:32;100359.38;;;9.00;100.00
19797;BME280;10058;57.654;12.044;2024-03-02T00:06:58;100355.44;;;8.85;100.00
19797;BME280;10058;57.654;12.044;2024-03-02T00:09:23;100358.91;;;8.84;100.00
19797;BME280;10058;57.654;12.044;2024-03-02T00:11:48;100352.84;;;8.86;100.00
19797;BME280;10058;57.654;12.044;2024-03-02T00:14:13;100352.50;;;8.74;100.00
19797;BME280;10058;57.654;12.044;2024-03-02T00:16:39;100358.16;;;8.56;100.00
19797;BME280;10058;57.654;12.044;2024-03-02T00:19:07;100355.75;;;8.64;100.00
19797;BME280;10058;57.654;12.044;2024-03-02T00:21:34;100358.25;;;8.59;100.00
19797;BME280;10058;57.654;12.044;2024-03-02T00:23:59;100361.59;;;8.54;100.00
19797;BME280;10058;57.654;12.044;2024-03-02T00:26:25;100358.78;;;8.48;100.00
19797;BME280;10058;57.654;12.044;2024-03-02T00:28:50;100375.28;;;8.42;100.00
19797;BME280;10058;57.654;12.044;2024-03-02T00:31:19;100362.19;;;8.44;100.00
19797;BME280;10058;57.654;12.044;2024-03-02T00:33:45;100367.25;;;8.37;100.00
19797;BME280;10058;57.654;12.044;2024-03-02T00:36:15;100365.75;;;8.46;100.00
19797;BME280;10058;57.654;12.044;2024-03-02T00:38:47;100377.09;;;8.43;100.00
19797;BME280;10058;57.654;12.044;2024-03-02T00:41:20;100372.81;;;8.47;100.00
19797;BME280;10058;57.654;12.044;2024-03-02T00:43:56;100381.63;;;8.49;100.00
19797;BME280;10058;57.654;12.044;2024-03-02T00:46:21;100374.66;;;8.51;100.00
19797;BME280;10058;57.654;12.044;2024-03-02T00:48:52;100379.56;;;8.38;100.00
19797;BME280;10058;57.654;12.044;2024-03-02T00:51:19;100351.22;;;8.31;100.00
19797;BME280;10058;57.654;12.044;2024-03-02T00:53:45;100376.63;;;8.58;100.00
19797;BME280;10058;57.654;12.044;2024-03-02T00:56:11;100373.34;;;8.65;100.00
19797;BME280;10058;57.654;12.044;2024-03-02T00:58:37;100380.47;;;8.69;100.00
19797;BME280;10058;57.654;12.044;2024-03-02T01:01:02;100384.44;;;8.55;100.00
19797;BME280;10058;57.654;12.044;2024-03-02T01:03:27;100376.19;;;8.43;100.00
19797;BME280;10058;57.654;12.044;2024-03-02T01:05:52;100383.44;;;8.23;100.00
19797;BME280;10058;57.654;12.044;2024-03-02T01:08:18;100394.22;;;8.30;100.00
19797;BME280;10058;57.654;12.044;2024-03-02T01:10:43;100397.06;;;8.36;100.00
19797;BME280;10058;57.654;12.044;2024-03-02T01:13:08;100388.31;;;8.37;100.00
19797;BME280;10058;57.654;12.044;2024-03-02T01:15:34;100399.94;;;8.44;100.00
19797;BME280;10058;57.654;12.044;2024-03-02T01:17:59;100388.59;;;8.47;100.00
19797;BME280;10058;57.654;12.044;2024-03-02T01:20:24;100396.41;;;8.44;100.00
19797;BME280;10058;57.654;12.044;2024-03-02T01:22:50;100399.97;;;8.46;100.00
19797;BME280;10058;57.654;12.044;2024-03-02T01:25:15;100393.28;;;8.57;100.00
19797;BME280;10058;57.654;12.044;2024-03-02T01:27:40;100401.09;;;8.54;100.00
19797;BME280;10058;57.654;12.044;2024-03-02T01:30:05;100389.16;;;8.65;100.00
19797;BME280;10058;57.654;12.044;2024-03-02T01:32:31;100386.19;;;8.54;100.00
19797;BME280;10058;57.654;12.044;2024-03-02T01:34:56;100382.00;;;8.61;100.00
19797;BME280;10058;57.654;12.044;2024-03-02T01:37:21;100376.97;;;8.70;100.00
19797;BME280;10058;57.654;12.044;2024-03-02T01:39:46;100380.47;;;8.69;100.00
19797;BME280;10058;57.654;12.044;2024-03-02T01:42:12;100372.59;;;8.70;100.00
19797;BME280;10058;57.654;12.044;2024-03-02T01:44:37;100368.22;;;8.71;100.00
19797;BME280;10058;57.654;12.044;2024-03-02T01:47:02;100367.69;;;8.83;100.00
19797;BME280;10058;57.654;12.044;2024-03-02T01:49:27;100358.66;;;8.75;100.00
19797;BME280;10058;57.654;12.044;2024-03-02T01:51:53;100362.44;;;8.53;100.00
19797;BME280;10058;57.654;12.044;2024-03-02T01:54:18;100356.16;;;8.49;100.00
19797;BME280;10058;57.654;12.044;2024-03-02T01:56:43;100358.69;;;8.45;100.00
19797;BME280;10058;57.654;12.044;2024-03-02T01:59:08;100354.53;;;8.24;100.00
19797;BME280;10058;57.654;12.044;2024-03-02T02:01:34;100349.16;;;8.21;100.00
19797;BME280;10058;57.654;12.044;2024-03-02T02:03:59;100347.38;;;8.20;100.00
19797;BME280;10058;57.654;12.044;2024-03-02T02:06:24;100333.13;;;8.12;100.00
19797;BME280;10058;57.654;12.044;2024-03-02T02:08:49;100340.63;;;8.00;100.00
19797;BME280;10058;57.654;12.044;2024-03-02T02:11:15;100345.28;;;8.09;100.00
19797;BME280;10058;57.654;12.044;2024-03-02T02:13:40;100349.47;;;8.02;100.00
19797;BME280;10058;57.654;12.044;2024-03-02T02:16:06;100343.41;;;8.04;100.00
19797;BME280;10058;57.654;12.044;2024-03-02T02:18:32;100342.50;;;8.04;100.00
19797;BME280;10058;57.654;12.044;2024-03-02T02:20:57;100338.97;;;8.03;100.00
19797;BME280;10058;57.654;12.044;2024-03-02T02:23:22;100334.91;;;8.15;100.00
19797;BME280;10058;57.654;12.044;2024-03-02T02:25:48;100336.28;;;8.02;100.00
19797;BME280;10058;57.654;12.044;2024-03-02T02:28:13;100337.63;;;7.88;100.00
19797;BME280;10058;57.654;12.044;2024-03-02T02:30:38;100330.56;;;7.87;100.00
19797;BME280;10058;57.654;12.044;2024-03-02T02:33:03;100323.66;;;7.90;100.00
19797;BME280;10058;57.654;12.044;2024-03-02T02:35:29;100322.03;;;7.94;100.00
19797;BME280;10058;57.654;12.044;2024-03-02T02:37:55;100321.56;;;7.79;100.00
19797;BME280;10058;57.654;12.044;2024-03-02T02:40:21;100314.03;;;7.91;100.00
19797;BME280;10058;57.654;12.044;2024-03-02T02:42:46;100323.13;;;7.74;100.00
19797;BME280;10058;57.654;12.044;2024-03-02T02:45:11;100314.25;;;7.70;100.00
19797;BME280;10058;57.654;12.044;2024-03-02T02:47:38;100320.94;;;7.87;100.00
19797;BME280;10058;57.654;12.044;2024-03-02T02:50:04;100302.38;;;7.83;100.00
19797;BME280;10058;57.654;12.044;2024-03-02T02:52:33;100304.88;;;7.78;100.00
19797;BME280;10058;57.654;12.044;2024-03-02T02:54:59;100292.56;;;7.77;100.00
19797;BME280;10058;57.654;12.044;2024-03-02T02:57:24;100288.25;;;7.81;100.00
19797;BME280;10058;57.654;12.044;2024-03-02T02:59:49;100284.88;;;7.85;100.00
19797;BME280;10058;57.654;12.044;2024-03-02T03:02:14;100274.38;;;7.85;100.00
19797;BME280;10058;57.654;12.044;2024-03-02T03:04:40;100278.31;;;7.99;100.00
19797;BME280;10058;57.654;12.044;2024-03-02T03:07:05;100283.31;;;7.90;100.00
19797;BME280;10058;57.654;12.044;2024-03-02T03:09:30;100281.97;;;8.04;100.00
19797;BME280;10058;57.654;12.044;2024-03-02T03:11:56;100283.94;;;8.11;100.00
19797;BME280;10058;57.654;12.044;2024-03-02T03:14:21;100283.84;;;8.08;100.00
19797;BME280;10058;57.654;12.044;2024-03-02T03:16:46;100286.38;;;8.05;100.00
19797;BME280;10058;57.654;12.044;2024-03-02T03:19:13;100291.50;;;8.00;100.00
19797;BME280;10058;57.654;12.044;2024-03-02T03:21:38;100287.88;;;7.97;100.00
19797;BME280;10058;57.654;12.044;2024-03-02T03:24:04;100294.78;;;7.92;100.00
19797;BME280;10058;57.654;12.044;2024-03-02T03:26:29;100289.59;;;7.95;100.00
19797;BME280;10058;57.654;12.044;2024-03-02T03:28:54;100285.25;;;7.97;100.00
19797;BME280;10058;57.654;12.044;2024-03-02T03:31:19;100285.63;;;7.79;100.00
19797;BME280;10058;57.654;12.044;2024-03-02T03:33:45;100290.25;;;7.88;100.00
19797;BME280;10058;57.654;12.044;2024-03-02T03:36:10;100302.66;;;7.92;100.00
19797;BME280;10058;57.654;12.044;2024-03-02T03:38:35;100295.50;;;7.88;100.00
19797;BME280;10058;57.654;12.044;2024-03-02T03:41:01;100298.34;;;7.94;100.00
19797;BME280;10058;57.654;12.044;2024-03-02T03:43:26;100290.50;;;7.97;100.00
19797;BME280;10058;57.654;12.044;2024-03-02T03:45:51;100288.75;;;7.96;100.00
19797;BME280;10058;57.654;12.044;2024-03-02T03:48:17;100290.44;;;7.94;100.00
19797;BME280;10058;57.654;12.044;2024-03-02T03:50:42;100289.50;;;7.92;100.00
19797;BME280;10058;57.654;12.044;2024-03-02T03:53:07;100299.44;;;8.02;100.00
19797;BME280;10058;57.654;12.044;2024-03-02T03:55:32;100300.50;;;8.07;100.00
19797;BME280;10058;57.654;12.044;2024-03-02T03:57:57;100290.81;;;8.06;100.00
19797;BME280;10058;57.654;12.044;2024-03-02T04:00:23;100293.94;;;7.93;100.00
19797;BME280;10058;57.654;12.044;2024-03-02T04:02:48;100291.66;;;8.05;100.00
19797;BME280;10058;57.654;12.044;2024-03-02T04:05:13;100294.28;;;8.05;100.00
19797;BME280;10058;57.654;12.044;2024-03-02T04:07:38;100289.59;;;7.95;100.00
19797;BME280;10058;57.654;12.044;2024-03-02T04:10:08;100292.00;;;7.87;100.00
19797;BME280;10058;57.654;12.044;2024-03-02T04:12:33;100286.78;;;7.89;100.00
19797;BME280;10058;57.654;12.044;2024-03-02T04:14:59;100287.09;;;7.71;100.00
19797;BME280;10058;57.654;12.044;2024-03-02T04:17:24;100288.38;;;7.84;100.00
19797;BME280;10058;57.654;12.044;2024-03-02T04:19:50;100271.09;;;7.92;100.00
19797;BME280;10058;57.654;12.044;2024-03-02T04:22:15;100280.72;;;7.91;100.00
19797;BME280;10058;57.654;12.044;2024-03-02T04:24:40;100276.34;;;7.92;100.00
19797;BME280;10058;57.654;12.044;2024-03-02T04:27:05;100276.41;;;7.93;100.00
19797;BME280;10058;57.654;12.044;2024-03-02T04:29:30;100285.25;;;7.97;100.00
19797;BME280;10058;57.654;12.044;2024-03-02T04:31:56;100283.31;;;7.90;100.00
19797;BME280;10058;57.654;12.044;2024-03-02T04:34:21;100277.00;;;7.85;100.00
19797;BME280;10058;57.654;12.044;2024-03-02T04:36:46;100271.19;;;7.95;100.00
19797;BME280;10058;57.654;12.044;2024-03-02T04:39:11;100266.38;;;8.10;100.00
19797;BME280;10058;57.654;12.044;2024-03-02T04:41:36;100276.09;;;8.13;100.00
19797;BME280;10058;57.654;12.044;2024-03-02T04:44:02;100270.06;;;8.17;100.00
19797;BME280;10058;57.654;12.044;2024-03-02T04:46:27;100262.34;;;8.23;100.00
19797;BME280;10058;57.654;12.044;2024-03-02T04:48:52;100269.34;;;8.22;100.00
19797;BME280;10058;57.654;12.044;2024-03-02T04:51:20;100270.47;;;8.30;100.00
19797;BME280;10058;57.654;12.044;2024-03-02T04:53:46;100272.34;;;8.34;100.00
19797;BME280;10058;57.654;12.044;2024-03-02T04:56:11;100276.78;;;8.35;100.00
19797;BME280;10058;57.654;12.044;2024-03-02T04:59:05;100276.13;;;8.43;100.00
19797;BME280;10058;57.654;12.044;2024-03-02T05:01:31;100281.38;;;8.43;100.00
19797;BME280;10058;57.654;12.044;2024-03-02T05:03:56;100278.00;;;8.47;100.00
19797;BME280;10058;57.654;12.044;2024-03-02T05:06:21;100276.41;;;8.53;100.00
19797;BME280;10058;57.654;12.044;2024-03-02T05:08:47;100276.44;;;8.55;100.00
19797;BME280;10058;57.654;12.044;2024-03-02T05:11:13;100268.72;;;8.61;100.00
19797;BME280;10058;57.654;12.044;2024-03-02T05:14:15;100272.91;;;8.54;100.00
19797;BME280;10058;57.654;12.044;2024-03-02T05:16:40;100262.44;;;8.56;100.00
19797;BME280;10058;57.654;12.044;2024-03-02T05:19:06;100269.56;;;8.60;100.00
19797;BME280;10058;57.654;12.044;2024-03-02T05:21:32;100264.53;;;8.69;100.00
19797;BME280;10058;57.654;12.044;2024-03-02T05:23:58;100274.94;;;8.63;100.00
19797;BME280;10058;57.654;12.044;2024-03-02T05:26:24;100262.06;;;8.75;100.00
19797;BME280;10058;57.654;12.044;2024-03-02T05:28:49;100274.28;;;8.71;100.00
19797;BME280;10058;57.654;12.044;2024-03-02T05:31:17;100269.91;;;8.72;100.00
19797;BME280;10058;57.654;12.044;2024-03-02T05:33:43;100266.69;;;8.82;100.00
19797;BME280;10058;57.654;12.044;2024-03-02T05:36:08;100263.00;;;8.77;100.00
19797;BME280;10058;57.654;12.044;2024-03-02T05:38:37;100263.00;;;8.77;100.00
19797;BME280;10058;57.654;12.044;2024-03-02T05:41:02;100272.00;;;8.85;100.00
19797;BME280;10058;57.654;12.044;2024-03-02T05:43:27;100267.47;;;8.80;100.00
19797;BME280;10058;57.654;12.044;2024-03-02T05:45:53;100259.66;;;8.84;100.00
19797;BME280;10058;57.654;12.044;2024-03-02T05:48:18;100270.16;;;8.81;100.00
19797;BME280;10058;57.654;12.044;2024-03-02T05:50:43;100267.06;;;8.97;100.00
19797;BME280;10058;57.654;12.044;2024-03-02T05:53:09;100263.00;;;8.77;100.00
19797;BME280;10058;57.654;12.044;2024-03-02T05:55:34;100268.28;;;8.77;100.00
19797;BME280;10058;57.654;12.044;2024-03-02T05:57:59;100266.09;;;8.94;100.00
19797;BME280;10058;57.654;12.044;2024-03-02T06:00:30;100274.97;;;8.97;100.00
19797;BME280;10058;57.654;12.044;2024-03-02T06:02:56;100273.50;;;9.08;100.00
19797;BME280;10058;57.654;12.044;2024-03-02T06:05:21;100270.13;;;9.14;100.00
19797;BME280;10058;57.654;12.044;2024-03-02T06:07:46;100265.75;;;9.15;100.00
19797;BME280;10058;57.654;12.044;2024-03-02T06:10:11;100262.34;;;9.20;100.00
19797;BME280;10058;57.654;12.044;2024-03-02T06:12:37;100265.84;;;9.18;100.00
19797;BME280;10058;57.654;12.044;2024-03-02T06:15:02;100269.44;;;9.23;100.00
19797;BME280;10058;57.654;12.044;2024-03-02T06:17:28;100265.84;;;9.19;100.00
19797;BME280;10058;57.654;12.044;2024-03-02T06:19:54;100267.75;;;9.25;100.00
19797;BME280;10058;57.654;12.044;2024-03-02T06:22:19;100275.63;;;9.23;100.00
19797;BME280;10058;57.654;12.044;2024-03-02T06:24:44;100280.16;;;9.29;100.00
19797;BME280;10058;57.654;12.044;2024-03-02T06:27:09;100277.53;;;9.29;100.00
19797;BME280;10058;57.654;12.044;2024-03-02T06:29:34;100275.09;;;9.38;100.00
19797;BME280;10058;57.654;12.044;2024-03-02T06:32:00;100265.88;;;9.21;100.00
19797;BME280;10058;57.654;12.044;2024-03-02T06:34:25;100268.34;;;9.49;100.00
19797;BME280;10058;57.654;12.044;2024-03-02T06:36:50;100272.66;;;9.46;100.00
19797;BME280;10058;57.654;12.044;2024-03-02T06:39:15;100279.53;;;9.39;100.00
19797;BME280;10058;57.654;12.044;2024-03-02T06:41:41;100277.91;;;9.44;100.00
19797;BME280;10058;57.654;12.044;2024-03-02T06:44:07;100279.81;;;9.50;100.00
19797;BME280;10058;57.654;12.044;2024-03-02T06:46:32;100282.53;;;9.54;100.00
19797;BME280;10058;57.654;12.044;2024-03-02T06:48:57;100279.19;;;9.61;100.00
19797;BME280;10058;57.654;12.044;2024-03-02T06:51:23;100276.50;;;9.60;100.00
19797;BME280;10058;57.654;12.044;2024-03-02T06:53:48;100273.13;;;9.65;100.00
19797;BME280;10058;57.654;12.044;2024-03-02T06:56:13;100276.75;;;9.69;100.00
19797;BME280;10058;57.654;12.044;2024-03-02T06:58:38;100275.19;;;9.78;100.00
19797;BME280;10058;57.654;12.044;2024-03-02T07:01:03;100275.25;;;9.82;100.00
19797;BME280;10058;57.654;12.044;2024-03-02T07:03:29;100273.28;;;9.73;100.00
19797;BME280;10058;57.654;12.044;2024-03-02T07:05:55;100275.50;;;9.92;100.00
19797;BME280;10058;57.654;12.044;2024-03-02T07:08:20;100274.66;;;9.95;100.00
19797;BME280;10058;57.654;12.044;2024-03-02T07:10:45;100276.53;;;9.99;100.00
19797;BME280;10058;57.654;12.044;2024-03-02T07:13:12;100269.72;;;10.10;100.00
19797;BME280;10058;57.654;12.044;2024-03-02T07:15:38;100267.25;;;10.18;100.00
19797;BME280;10058;57.654;12.044;2024-03-02T07:18:12;100266.47;;;10.20;100.00
19797;BME280;10058;57.654;12.044;2024-03-02T07:20:37;100271.84;;;10.26;100.00
19797;BME280;10058;57.654;12.044;2024-03-02T07:23:04;100270.91;;;10.21;100.00
19797;BME280;10058;57.654;12.044;2024-03-02T07:25:29;100271.44;;;10.08;100.00
19797;BME280;10058;57.654;12.044;2024-03-02T07:27:54;100266.56;;;10.26;100.00
19797;BME280;10058;57.654;12.044;2024-03-02T07:30:19;100269.09;;;10.20;100.00
19797;BME280;10058;57.654;12.044;2024-03-02T07:32:44;100259.50;;;10.25;100.00
19797;BME280;10058;57.654;12.044;2024-03-02T07:35:13;100262.28;;;10.31;100.00
19797;BME280;10058;57.654;12.044;2024-03-02T07:37:39;100265.06;;;10.37;100.00
19797;BME280;10058;57.654;12.044;2024-03-02T07:40:04;100267.84;;;10.45;100.00
19797;BME280;10058;57.654;12.044;2024-03-02T07:42:30;100277.59;;;10.48;100.00
19797;BME280;10058;57.654;12.044;2024-03-02T07:44:55;100269.75;;;10.52;100.00
19797;BME280;10058;57.654;12.044;2024-03-02T07:47:20;100264.47;;;10.52;100.00
19797;BME280;10058;57.654;12.044;2024-03-02T07:49:45;100265.59;;;10.65;100.00
19797;BME280;10058;57.654;12.044;2024-03-02T07:52:11;100263.88;;;10.67;100.00
19797;BME280;10058;57.654;12.044;2024-03-02T07:54:36;100260.31;;;10.65;100.00
19797;BME280;10058;57.654;12.044;2024-03-02T07:57:02;100254.84;;;10.57;100.00
19797;BME280;10058;57.654;12.044;2024-03-02T07:59:27;100273.09;;;10.43;100.00
19797;BME280;10058;57.654;12.044;2024-03-02T08:01:52;100261.28;;;10.70;100.00
19797;BME280;10058;57.654;12.044;2024-03-02T08:04:20;100261.72;;;10.94;100.00
19797;BME280;10058;57.654;12.044;2024-03-02T08:06:45;100257.28;;;10.93;100.00
19797;BME280;10058;57.654;12.044;2024-03-02T08:09:10;100252.25;;;11.05;100.00
19797;BME280;10058;57.654;12.044;2024-03-02T08:11:36;100254.78;;;11.01;100.00
19797;BME280;10058;57.654;12.044;2024-03-02T08:14:02;100257.47;;;11.02;100.00
19797;BME280;10058;57.654;12.044;2024-03-02T08:16:27;100254.84;;;11.04;100.00
19797;BME280;10058;57.654;12.044;2024-03-02T08:18:52;100256.56;;;11.00;100.00
19797;BME280;10058;57.654;12.044;2024-03-02T08:21:18;100255.72;;;11.03;100.00
19797;BME280;10058;57.654;12.044;2024-03-02T08:23:43;100254.97;;;11.11;100.00
19797;BME280;10058;57.654;12.044;2024-03-02T08:26:09;100252.13;;;10.99;100.00
19797;BME280;10058;57.654;12.044;2024-03-02T08:28:34;100247.22;;;11.21;100.00
19797;BME280;10058;57.654;12.044;2024-03-02T08:31:00;100246.38;;;11.23;100.00
19797;BME280;10058;57.654;12.044;2024-03-02T08:33:25;100252.63;;;11.30;100.00
19797;BME280;10058;57.654;12.044;2024-03-02T08:35:50;100261.50;;;11.32;100.00
19797;BME280;10058;57.654;12.044;2024-03-02T08:38:16;100251.00;;;11.36;100.00
19797;BME280;10058;57.654;12.044;2024-03-02T08:40:41;100250.91;;;11.32;100.00
19797;BME280;10058;57.654;12.044;2024-03-02T08:43:06;100242.38;;;11.51;100.00
19797;BME280;10058;57.654;12.044;2024-03-02T08:45:32;100240.66;;;11.53;100.00
19797;BME280;10058;57.654;12.044;2024-03-02T08:47:57;100243.47;;;11.65;100.00
19797;BME280;10058;57.654;12.044;2024-03-02T08:50:22;100240.59;;;11.50;100.00
19797;BME280;10058;57.654;12.044;2024-03-02T08:52:47;100245.63;;;11.32;100.00
19797;BME280;10058;57.654;12.044;2024-03-02T08:55:12;100251.16;;;11.47;100.00
19797;BME280;10058;57.654;12.044;2024-03-02T08:57:38;100240.94;;;11.71;100.00
19797;BME280;10058;57.654;12.044;2024-03-02T09:00:03;100248.50;;;11.47;100.00
19797;BME280;10058;57.654;12.044;2024-03-02T09:02:30;100241.63;;;11.58;100.00
19797;BME280;10058;57.654;12.044;2024-03-02T09:04:55;100239.19;;;11.73;100.00
19797;BME280;10058;57.654;12.044;2024-03-02T09:07:21;100241.59;;;11.55;100.00
19797;BME280;10058;57.654;12.044;2024-03-02T09:09:46;100244.06;;;11.46;100.00
19797;BME280;10058;57.654;12.044;2024-03-02T09:12:11;100251.19;;;11.50;100.00
19797;BME280;10058;57.654;12.044;2024-03-02T09:14:36;100244.19;;;11.52;100.00
19797;BME280;10058;57.654;12.044;2024-03-02T09:17:02;100254.94;;;11.64;100.00
19797;BME280;10058;57.654;12.044;2024-03-02T09:19:27;100238.44;;;11.80;100.00
19797;BME280;10058;57.654;12.044;2024-03-02T09:21:52;100236.69;;;11.81;100.00
19797;BME280;10058;57.654;12.044;2024-03-02T09:24:17;100248.84;;;11.70;100.00
19797;BME280;10058;57.654;12.044;2024-03-02T09:26:43;100251.47;;;11.68;100.00
19797;BME280;10058;57.654;12.044;2024-03-02T09:29:08;100244.41;;;11.67;100.00
19797;BME280;10058;57.654;12.044;2024-03-02T09:31:38;100242.66;;;11.69;100.00
19797;BME280;10058;57.654;12.044;2024-03-02T09:34:04;100244.50;;;11.73;100.00
19797;BME280;10058;57.654;12.044;2024-03-02T09:36:29;100243.72;;;11.80;100.00
19797;BME280;10058;57.654;12.044;2024-03-02T09:38:54;100250.66;;;11.72;100.00
19797;BME280;10058;57.654;12.044;2024-03-02T09:41:19;100252.53;;;11.76;100.00
19797;BME280;10058;57.654;12.044;2024-03-02T09:43:45;100246.19;;;11.68;100.00
19797;BME280;10058;57.654;12.044;2024-03-02T09:46:10;100255.00;;;11.67;100.00
19797;BME280;10058;57.654;12.044;2024-03-02T09:48:36;100259.44;;;11.70;100.00
19797;BME280;10058;57.654;12.044;2024-03-02T09:51:01;100247.91;;;11.66;100.00
19797;BME280;10058;57.654;12.044;2024-03-02T09:53:32;100249.94;;;11.82;100.00
19797;BME280;10058;57.654;12.044;2024-03-02T09:55:58;100243.06;;;11.94;100.00
19797;BME280;10058;57.654;12.044;2024-03-02T09:58:23;100241.28;;;11.93;100.00
19797;BME280;10058;57.654;12.044;2024-03-02T10:00:49;100245.75;;;12.00;100.00
19797;BME280;10058;57.654;12.044;2024-03-02T10:03:14;100239.75;;;12.13;100.00
19797;BME280;10058;57.654;12.044;2024-03-02T10:05:39;100245.00;;;12.08;100.00
19797;BME280;10058;57.654;12.044;2024-03-02T10:08:04;100241.53;;;12.11;100.00
19797;BME280;10058;57.654;12.044;2024-03-02T10:10:36;100248.44;;;12.01;100.00
19797;BME280;10058;57.654;12.044;2024-03-02T10:13:05;100235.25;;;12.04;100.00
19797;BME280;10058;57.654;12.044;2024-03-02T10:15:30;100239.50;;;11.92;100.00
19797;BME280;10058;57.654;12.044;2024-03-02T10:17:55;100241.13;;;11.83;100.00
19797;BME280;10058;57.654;12.044;2024-03-02T10:20:21;100246.50;;;11.88;100.00
19797;BME280;10058;57.654;12.044;2024-03-02T10:22:48;100243.84;;;11.87;100.00
19797;BME280;10058;57.654;12.044;2024-03-02T10:25:27;100250.28;;;12.07;100.00
19797;BME280;10058;57.654;12.044;2024-03-02T10:27:53;100248.47;;;12.03;100.00
19797;BME280;10058;57.654;12.044;2024-03-02T10:30:18;100250.47;;;12.22;100.00
19797;BME280;10058;57.654;12.044;2024-03-02T10:32:44;100235.28;;;12.07;100.00
19797;BME280;10058;57.654;12.044;2024-03-02T10:35:09;100239.75;;;12.13;100.00
19797;BME280;10058;57.654;12.044;2024-03-02T10:37:34;100240.03;;;12.34;100.00
19797;BME280;10058;57.654;12.044;2024-03-02T10:40:04;100243.31;;;12.12;100.00
19797;BME280;10058;57.654;12.044;2024-03-02T10:42:29;100240.03;;;12.34;100.00
19797;BME280;10058;57.654;12.044;2024-03-02T10:44:54;100237.53;;;12.48;100.00
19797;BME280;10058;57.654;12.044;2024-03-02T10:47:20;100238.44;;;12.50;100.00
19797;BME280;10058;57.654;12.044;2024-03-02T10:49:47;100228.03;;;12.70;100.00
19797;BME280;10058;57.654;12.044;2024-03-02T10:52:16;100232.41;;;12.62;100.00
19797;BME280;10058;57.654;12.044;2024-03-02T10:54:42;100243.66;;;12.42;100.00
19797;BME280;10058;57.654;12.044;2024-03-02T10:57:08;100233.97;;;12.43;100.00
19797;BME280;10058;57.654;12.044;2024-03-02T10:59:36;100232.47;;;12.69;100.00
19797;BME280;10058;57.654;12.044;2024-03-02T11:02:04;100242.13;;;12.63;100.00
19797;BME280;10058;57.654;12.044;2024-03-02T11:04:30;100236.91;;;12.72;100.00
19797;BME280;10058;57.654;12.044;2024-03-02T11:07:05;100239.53;;;12.70;100.00
19797;BME280;10058;57.654;12.044;2024-03-02T11:09:33;100232.38;;;12.59;100.00
19797;BME280;10058;57.654;12.044;2024-03-02T11:14:30;100236.94;;;12.75;100.00
19797;BME280;10058;57.654;12.044;2024-03-02T11:16:56;100245.44;;;12.43;100.00
19797;BME280;10058;57.654;12.044;2024-03-02T11:19:22;100240.06;;;12.37;100.00
19797;BME280;10058;57.654;12.044;2024-03-02T11:21:47;100244.44;;;12.34;100.00
19797;BME280;10058;57.654;12.044;2024-03-02T11:24:31;100247.09;;;12.35;100.00
19797;BME280;10058;57.654;12.044;2024-03-02T11:27:00;100246.13;;;12.27;100.00
19797;BME280;10058;57.654;12.044;2024-03-02T11:32:01;100242.66;;;12.33;100.00
19797;BME280;10058;57.654;12.044;2024-03-02T11:34:30;100247.13;;;12.37;100.00
19797;BME280;10058;57.654;12.044;2024-03-02T11:36:55;100253.22;;;12.28;100.00
19797;BME280;10058;57.654;12.044;2024-03-02T11:39:20;100250.28;;;12.07;100.00
19797;BME280;10058;57.654;12.044;2024-03-02T11:41:46;100253.13;;;12.20;100.00
19797;BME280;10058;57.654;12.044;2024-03-02T11:44:11;100249.47;;;12.12;100.00
19797;BME280;10058;57.654;12.044;2024-03-02T11:46:39;100254.88;;;12.20;100.00
19797;BME280;10058;57.654;12.044;2024-03-02T11:49:04;100246.16;;;12.32;100.00
19797;BME280;10058;57.654;12.044;2024-03-02T11:51:29;100253.84;;;12.09;100.00
19797;BME280;10058;57.654;12.044;2024-03-02T11:53:56;100267.88;;;12.02;100.00
19797;BME280;10058;57.654;12.044;2024-03-02T11:56:23;100262.78;;;12.17;100.00
19797;BME280;10058;57.654;12.044;2024-03-02T11:58:50;100259.34;;;12.24;100.00
19797;BME280;10058;57.654;12.044;2024-03-02T12:01:18;100268.84;;;12.07;100.00
19797;BME280;10058;57.654;12.044;2024-03-02T12:03:44;100272.50;;;12.18;100.00
19797;BME280;10058;57.654;12.044;2024-03-02T12:06:10;100275.00;;;12.06;100.00
19797;BME280;10058;57.654;12.044;2024-03-02T12:08:38;100280.16;;;11.97;100.00
19797;BME280;10058;57.654;12.044;2024-03-02T12:11:03;100283.44;;;11.80;100.00
19797;BME280;10058;57.654;12.044;2024-03-02T12:13:28;100269.66;;;12.03;100.00
19797;BME280;10058;57.654;12.044;2024-03-02T12:15:54;100264.34;;;12.03;100.00
19797;BME280;10058;57.654;12.044;2024-03-02T12:18:22;100267.09;;;12.09;100.00
19797;BME280;10058;57.654;12.044;2024-03-02T12:20:50;100254.78;;;12.14;100.00
19797;BME280;10058;57.654;12.044;2024-03-02T12:23:18;100270.94;;;12.34;100.00
19797;BME280;10058;57.654;12.044;2024-03-02T12:25:43;100268.06;;;12.17;100.00
19797;BME280;10058;57.654;12.044;2024-03-02T12:28:09;100257.56;;;12.23;100.00
19797;BME280;10058;57.654;12.044;2024-03-02T12:30:35;100261.13;;;12.25;100.00
19797;BME280;10058;57.654;12.044;2024-03-02T12:33:00;100266.47;;;12.31;100.00
19797;BME280;10058;57.654;12.044;2024-03-02T12:35:25;100261.41;;;12.46;100.00